createdAt,value
2023-04-02T00:00:06.274Z,97907.01
2023-04-02T00:00:59.525Z,97905.92
2023-04-02T00:01:41.611Z,97908.98
2023-04-02T00:02:21.409Z,97909.74
2023-04-02T00:02:55.229Z,97906.97
2023-04-02T00:03:42.600Z,97908.21
2023-04-02T00:04:22.585Z,97913.53
2023-04-02T00:05:16.829Z,97911.80
2023-04-02T00:05:54.989Z,97913.77
2023-04-02T00:06:33.240Z,97914.45
2023-04-02T00:07:31.159Z,97914.40
2023-04-02T00:08:10.587Z,97915.65
2023-04-02T00:08:43.908Z,97915.46
2023-04-02T00:09:22.470Z,97916.06
2023-04-02T00:09:56.123Z,97918.96
2023-04-02T00:10:38.149Z,97914.60
2023-04-02T00:11:13.249Z,97916.91
2023-04-02T00:11:49.372Z,97915.33
2023-04-02T00:12:22.634Z,97915.73
2023-04-02T00:13:04.123Z,97917.93
2023-04-02T00:13:41.934Z,97915.95
2023-04-02T00:14:22.363Z,97914.27
2023-04-02T00:14:56.364Z,97915.58
2023-04-02T00:15:30.047Z,97916.63
2023-04-02T00:16:04.873Z,97918.92
2023-04-02T00:16:38.257Z,97918.15
2023-04-02T00:17:11.645Z,97919.92
2023-04-02T00:17:45.118Z,97919.25
2023-04-02T00:18:19.918Z,97919.00
2023-04-02T00:18:56.076Z,97920.38
2023-04-02T00:19:36.727Z,97919.56
2023-04-02T00:20:16.260Z,97921.98
2023-04-02T00:20:53.487Z,97922.07
2023-04-02T00:21:29.471Z,97923.59
2023-04-02T00:22:03.621Z,97924.48
2023-04-02T00:22:44.252Z,97923.37
2023-04-02T00:23:17.431Z,97924.20
2023-04-02T00:23:53.516Z,97925.05
2023-04-02T00:24:26.907Z,97926.66
2023-04-02T00:25:02.055Z,97924.89
2023-04-02T00:25:37.299Z,97924.20
2023-04-02T00:26:24.412Z,97925.30
2023-04-02T00:26:57.763Z,97921.20
2023-04-02T00:27:32.373Z,97922.73
2023-04-02T00:28:05.551Z,97922.77
2023-04-02T00:28:39.143Z,97927.83
2023-04-02T00:29:14.586Z,97926.66
2023-04-02T00:29:52.867Z,97928.77
2023-04-02T00:30:26.352Z,97924.90
2023-04-02T00:31:00.119Z,97925.05
2023-04-02T00:31:34.549Z,97930.13
2023-04-02T00:32:16.017Z,97932.27
2023-04-02T00:32:49.797Z,97930.89
2023-04-02T00:33:24.648Z,97929.61
2023-04-02T00:33:59.978Z,97932.10
2023-04-02T00:34:34.332Z,97933.31
2023-04-02T00:35:18.729Z,97931.98
2023-04-02T00:35:53.671Z,97930.41
2023-04-02T00:36:30.403Z,97930.97
2023-04-02T00:37:03.985Z,97930.80
2023-04-02T00:37:42.503Z,97930.20
2023-04-02T00:38:20.066Z,97930.56
2023-04-02T00:38:54.981Z,97933.90
2023-04-02T00:39:30.978Z,97934.87
2023-04-02T00:40:28.885Z,97938.97
2023-04-02T00:41:04.425Z,97935.99
2023-04-02T00:41:39.063Z,97936.36
2023-04-02T00:42:13.143Z,97939.50
2023-04-02T00:42:47.559Z,97939.70
2023-04-02T00:43:21.222Z,97936.01
2023-04-02T00:43:55.015Z,97937.27
2023-04-02T00:44:30.663Z,97937.74
2023-04-02T00:45:04.458Z,97939.94
2023-04-02T00:45:39.124Z,97930.98
2023-04-02T00:46:16.149Z,97936.21
2023-04-02T00:46:50.948Z,97939.00
2023-04-02T00:47:32.228Z,97936.95
2023-04-02T00:48:24.748Z,97938.20
2023-04-02T00:49:00.224Z,97940.69
2023-04-02T00:49:38.270Z,97938.47
2023-04-02T00:50:17.588Z,97939.67
2023-04-02T00:50:51.485Z,97942.05
2023-04-02T00:51:27.838Z,97940.33
2023-04-02T00:52:03.473Z,97943.10
2023-04-02T00:52:37.678Z,97945.08
2023-04-02T00:53:17.047Z,97944.35
2023-04-02T00:53:52.496Z,97943.21
2023-04-02T00:54:27.984Z,97947.08
2023-04-02T00:55:10.771Z,97943.61
2023-04-02T00:55:44.161Z,97950.27
2023-04-02T00:56:20.718Z,97948.23
2023-04-02T00:56:58.465Z,97949.48
2023-04-02T00:57:33.741Z,97946.19
2023-04-02T00:58:26.348Z,97949.16
2023-04-02T00:58:59.870Z,97949.64
2023-04-02T00:59:43.354Z,97947.08
2023-04-02T01:00:43.929Z,97949.63
2023-04-02T01:01:19.511Z,97953.80
2023-04-02T01:02:19.373Z,97954.30
2023-04-02T01:03:11.637Z,97950.42
2023-04-02T01:03:54.267Z,97949.53
2023-04-02T01:04:29.775Z,97956.14
2023-04-02T01:05:20.270Z,97954.13
2023-04-02T01:06:01.934Z,97956.23
2023-04-02T01:06:39.005Z,97955.81
2023-04-02T01:07:12.533Z,97955.66
2023-04-02T01:08:06.362Z,97956.33
2023-04-02T01:08:55.007Z,97956.79
2023-04-02T01:09:48.453Z,97958.40
2023-04-02T01:10:40.281Z,97957.19
2023-04-02T01:11:13.589Z,97957.23
2023-04-02T01:12:05.696Z,97957.92
2023-04-02T01:12:49.718Z,97956.51
2023-04-02T01:13:42.171Z,97959.85
2023-04-02T01:14:37.024Z,97959.00
2023-04-02T01:15:33.810Z,97958.36
2023-04-02T01:16:16.448Z,97958.97
2023-04-02T01:17:01.526Z,97960.21
2023-04-02T01:17:49.130Z,97960.54
2023-04-02T01:18:34.894Z,97962.63
2023-04-02T01:19:18.586Z,97960.09
2023-04-02T01:19:52.821Z,97961.83
2023-04-02T01:20:35.011Z,97960.81
2023-04-02T01:21:14.504Z,97961.77
2023-04-02T01:21:53.151Z,97962.02
2023-04-02T01:22:35.541Z,97963.98
2023-04-02T01:23:18.647Z,97963.70
2023-04-02T01:23:58.076Z,97963.27
2023-04-02T01:24:32.898Z,97963.91
2023-04-02T01:25:07.024Z,97963.60
2023-04-02T01:25:43.240Z,97966.58
2023-04-02T01:26:35.358Z,97964.85
2023-04-02T01:27:16.741Z,97967.10
2023-04-02T01:27:57.550Z,97966.38
2023-04-02T01:28:34.051Z,97966.45
2023-04-02T01:29:10.524Z,97965.09
2023-04-02T01:29:53.652Z,97967.02
2023-04-02T01:30:27.315Z,97968.66
2023-04-02T01:31:02.155Z,97967.45
2023-04-02T01:31:36.280Z,97969.90
2023-04-02T01:32:14.108Z,97970.95
2023-04-02T01:32:47.603Z,97970.79
2023-04-02T01:33:25.321Z,97973.33
2023-04-02T01:33:58.985Z,97970.59
2023-04-02T01:34:32.452Z,97970.43
2023-04-02T01:35:06.088Z,97970.95
2023-04-02T01:35:41.700Z,97974.45
2023-04-02T01:36:20.264Z,97971.47
2023-04-02T01:37:03.021Z,97972.92
2023-04-02T01:37:37.082Z,97973.93
2023-04-02T01:38:19.179Z,97972.16
2023-04-02T01:39:05.381Z,97972.04
2023-04-02T01:39:57.066Z,97977.52
2023-04-02T01:40:33.124Z,97981.34
2023-04-02T01:41:13.290Z,97975.45
2023-04-02T01:41:53.971Z,97980.02
2023-04-02T01:42:32.299Z,97979.13
2023-04-02T01:43:05.597Z,97981.27
2023-04-02T01:43:45.055Z,97984.00
2023-04-02T01:44:22.910Z,97985.92
2023-04-02T01:45:08.562Z,97984.96
2023-04-02T01:45:42.058Z,97985.84
2023-04-02T01:46:28.791Z,97984.60
2023-04-02T01:47:04.380Z,97988.95
2023-04-02T01:47:38.101Z,97989.14
2023-04-02T01:48:17.023Z,97989.14
2023-04-02T01:48:50.683Z,97990.63
2023-04-02T01:49:24.159Z,97994.29
2023-04-02T01:49:58.778Z,97996.91
2023-04-02T01:50:37.488Z,97993.73
2023-04-02T01:51:25.510Z,97992.41
2023-04-02T01:51:59.913Z,97996.23
2023-04-02T01:52:43.442Z,97996.27
2023-04-02T01:53:18.265Z,97995.80
2023-04-02T01:53:51.630Z,97998.20
2023-04-02T01:54:26.242Z,97996.36
2023-04-02T01:54:59.932Z,97997.41
2023-04-02T01:55:39.534Z,97995.89
2023-04-02T01:56:13.064Z,97994.21
2023-04-02T01:56:47.529Z,97997.88
2023-04-02T01:57:21.160Z,97995.79
2023-04-02T01:57:54.636Z,97998.57
2023-04-02T01:58:32.326Z,97998.85
2023-04-02T01:59:07.058Z,97999.07
2023-04-02T01:59:40.524Z,97999.58
2023-04-02T02:00:15.968Z,97997.73
2023-04-02T02:00:56.440Z,97995.44
2023-04-02T02:01:36.771Z,98001.59
2023-04-02T02:02:12.750Z,97996.43
2023-04-02T02:02:50.410Z,98000.70
2023-04-02T02:03:23.992Z,98001.42
2023-04-02T02:03:57.656Z,98000.02
2023-04-02T02:04:31.859Z,97997.73
2023-04-02T02:05:06.460Z,98004.03
2023-04-02T02:05:40.256Z,98001.19
2023-04-02T02:06:14.655Z,98000.62
2023-04-02T02:06:48.357Z,98001.91
2023-04-02T02:07:21.939Z,98003.27
2023-04-02T02:07:56.865Z,98003.40
2023-04-02T02:08:39.141Z,98001.14
2023-04-02T02:09:16.110Z,98002.16
2023-04-02T02:09:49.977Z,98002.92
2023-04-02T02:10:27.804Z,98003.45
2023-04-02T02:11:02.094Z,98004.85
2023-04-02T02:11:36.713Z,98003.85
2023-04-02T02:12:14.097Z,98003.65
2023-04-02T02:12:48.297Z,98001.55
2023-04-02T02:13:22.176Z,98003.25
2023-04-02T02:13:56.505Z,98005.09
2023-04-02T02:14:31.098Z,98006.30
2023-04-02T02:15:04.494Z,98005.20
2023-04-02T02:15:37.893Z,98007.86
2023-04-02T02:16:16.184Z,98009.11
2023-04-02T02:16:50.307Z,98008.91
2023-04-02T02:17:34.143Z,98009.15
2023-04-02T02:18:10.857Z,98008.66
2023-04-02T02:18:45.511Z,98010.48
2023-04-02T02:19:37.808Z,98013.50
2023-04-02T02:20:12.844Z,98017.66
2023-04-02T02:20:46.818Z,98015.15
2023-04-02T02:21:39.151Z,98017.11
2023-04-02T02:22:22.261Z,98020.77
2023-04-02T02:22:56.872Z,98018.33
2023-04-02T02:23:31.239Z,98021.66
2023-04-02T02:24:05.579Z,98019.34
2023-04-02T02:24:39.262Z,98021.59
2023-04-02T02:25:16.340Z,98023.80
2023-04-02T02:25:49.730Z,98022.14
2023-04-02T02:26:24.644Z,98023.41
2023-04-02T02:27:01.114Z,98026.85
2023-04-02T02:27:53.214Z,98028.06
2023-04-02T02:28:31.694Z,98026.77
2023-04-02T02:29:07.247Z,98027.70
2023-04-02T02:29:41.989Z,98028.73
2023-04-02T02:30:22.728Z,98027.00
2023-04-02T02:31:07.572Z,98026.11
2023-04-02T02:31:44.870Z,98027.17
2023-04-02T02:32:21.038Z,98027.73
2023-04-02T02:33:00.069Z,98032.48
2023-04-02T02:33:33.294Z,98032.02
2023-04-02T02:34:09.379Z,98033.15
2023-04-02T02:34:46.420Z,98034.27
2023-04-02T02:35:26.047Z,98036.80
2023-04-02T02:36:02.221Z,98036.77
2023-04-02T02:36:40.382Z,98036.49
2023-04-02T02:37:18.086Z,98037.30
2023-04-02T02:37:56.992Z,98038.42
2023-04-02T02:38:39.676Z,98039.78
2023-04-02T02:39:51.864Z,98039.29
2023-04-02T02:40:32.251Z,98042.75
2023-04-02T02:41:08.937Z,98041.37
2023-04-02T02:41:52.672Z,98046.48
2023-04-02T02:42:26.005Z,98040.96
2023-04-02T02:43:01.548Z,98040.69
2023-04-02T02:43:35.412Z,98042.84
2023-04-02T02:44:08.689Z,98046.53
2023-04-02T02:44:46.817Z,98044.33
2023-04-02T02:45:24.273Z,98045.56
2023-04-02T02:45:58.117Z,98051.35
2023-04-02T02:46:32.873Z,98046.45
2023-04-02T02:47:15.064Z,98051.64
2023-04-02T02:47:49.448Z,98052.98
2023-04-02T02:48:24.701Z,98052.00
2023-04-02T02:48:59.206Z,98051.45
2023-04-02T02:49:34.195Z,98052.13
2023-04-02T02:50:10.638Z,98054.30
2023-04-02T02:50:44.294Z,98055.04
2023-04-02T02:51:22.168Z,98052.56
2023-04-02T02:52:07.935Z,98056.73
2023-04-02T02:52:45.923Z,98057.98
2023-04-02T02:53:23.513Z,98059.23
2023-04-02T02:54:01.266Z,98057.13
2023-04-02T02:54:36.935Z,98063.08
2023-04-02T02:55:13.079Z,98060.25
2023-04-02T02:55:48.617Z,98061.92
2023-04-02T02:56:23.325Z,98064.31
2023-04-02T02:57:00.284Z,98069.14
2023-04-02T02:57:36.341Z,98065.39
2023-04-02T02:58:12.178Z,98064.05
2023-04-02T02:58:45.560Z,98064.20
2023-04-02T02:59:19.722Z,98065.05
2023-04-02T02:59:54.163Z,98071.41
2023-04-02T03:00:27.988Z,98070.25
2023-04-02T03:01:02.101Z,98072.14
2023-04-02T03:01:36.094Z,98070.88
2023-04-02T03:02:09.995Z,98070.39
2023-04-02T03:02:44.880Z,98073.99
2023-04-02T03:03:22.347Z,98075.16
2023-04-02T03:03:56.439Z,98075.08
2023-04-02T03:04:30.881Z,98073.75
2023-04-02T03:05:05.341Z,98072.12
2023-04-02T03:05:39.559Z,98075.47
2023-04-02T03:06:16.839Z,98078.33
2023-04-02T03:06:54.311Z,98075.95
2023-04-02T03:07:27.836Z,98079.20
2023-04-02T03:08:03.473Z,98077.53
2023-04-02T03:08:40.515Z,98081.91
2023-04-02T03:09:19.422Z,98082.56
2023-04-02T03:09:57.915Z,98082.33
2023-04-02T03:10:43.796Z,98080.59
2023-04-02T03:11:23.528Z,98082.19
2023-04-02T03:12:02.231Z,98084.79
2023-04-02T03:12:47.715Z,98082.38
2023-04-02T03:13:23.542Z,98086.67
2023-04-02T03:14:03.167Z,98088.07
2023-04-02T03:14:44.153Z,98086.95
2023-04-02T03:15:23.369Z,98083.58
2023-04-02T03:15:59.846Z,98089.60
2023-04-02T03:16:46.103Z,98086.79
2023-04-02T03:17:34.937Z,98091.52
2023-04-02T03:18:08.201Z,98090.04
2023-04-02T03:18:41.593Z,98090.59
2023-04-02T03:19:15.104Z,98093.56
2023-04-02T03:19:53.691Z,98091.55
2023-04-02T03:20:32.922Z,98095.41
2023-04-02T03:21:12.380Z,98092.83
2023-04-02T03:21:54.332Z,98094.13
2023-04-02T03:22:39.692Z,98096.58
2023-04-02T03:23:16.734Z,98096.34
2023-04-02T03:23:57.202Z,98093.41
2023-04-02T03:24:33.345Z,98097.61
2023-04-02T03:25:19.124Z,98096.77
2023-04-02T03:25:58.350Z,98101.31
2023-04-02T03:26:37.474Z,98098.89
2023-04-02T03:27:13.566Z,98096.27
2023-04-02T03:27:49.792Z,98097.99
2023-04-02T03:28:26.403Z,98099.00
2023-04-02T03:28:59.743Z,98098.95
2023-04-02T03:29:39.856Z,98095.70
2023-04-02T03:30:31.993Z,98102.67
2023-04-02T03:31:20.266Z,98101.85
2023-04-02T03:32:12.413Z,98102.88
2023-04-02T03:32:49.002Z,98104.02
2023-04-02T03:33:27.952Z,98103.38
2023-04-02T03:34:04.853Z,98104.02
2023-04-02T03:34:38.040Z,98103.80
2023-04-02T03:35:26.780Z,98105.60
2023-04-02T03:36:21.298Z,98103.55
2023-04-02T03:36:58.240Z,98105.91
2023-04-02T03:37:31.605Z,98103.98
2023-04-02T03:38:13.689Z,98108.84
2023-04-02T03:38:57.718Z,98107.02
2023-04-02T03:39:36.238Z,98105.52
2023-04-02T03:40:15.938Z,98110.52
2023-04-02T03:41:13.889Z,98107.42
2023-04-02T03:42:04.211Z,98109.98
2023-04-02T03:42:40.686Z,98110.39
2023-04-02T03:43:29.100Z,98111.83
2023-04-02T03:44:07.943Z,98111.02
2023-04-02T03:44:46.326Z,98114.05
2023-04-02T03:45:23.268Z,98116.13
2023-04-02T03:46:00.957Z,98112.01
2023-04-02T03:46:34.228Z,98114.06
2023-04-02T03:47:20.107Z,98116.88
2023-04-02T03:47:56.823Z,98114.98
2023-04-02T03:48:45.535Z,98118.15
2023-04-02T03:49:24.652Z,98119.52
2023-04-02T03:50:03.810Z,98118.11
2023-04-02T03:50:41.526Z,98120.04
2023-04-02T03:51:24.130Z,98120.09
2023-04-02T03:52:10.126Z,98122.39
2023-04-02T03:52:43.703Z,98124.55
2023-04-02T03:53:16.976Z,98124.09
2023-04-02T03:53:50.570Z,98125.66
2023-04-02T03:54:24.059Z,98124.98
2023-04-02T03:54:59.271Z,98124.89
2023-04-02T03:55:38.281Z,98127.17
2023-04-02T03:56:24.982Z,98127.53
2023-04-02T03:56:58.725Z,98128.73
2023-04-02T03:57:46.919Z,98130.70
2023-04-02T03:58:26.456Z,98131.84
2023-04-02T03:59:07.098Z,98132.92
2023-04-02T03:59:47.370Z,98134.80
2023-04-02T04:00:25.018Z,98134.00
2023-04-02T04:01:31.900Z,98131.91
2023-04-02T04:02:31.724Z,98136.94
2023-04-02T04:03:16.436Z,98138.55
2023-04-02T04:03:54.589Z,98136.41
2023-04-02T04:04:29.481Z,98137.33
2023-04-02T04:05:04.786Z,98138.14
2023-04-02T04:05:44.207Z,98139.35
2023-04-02T04:06:22.093Z,98140.46
2023-04-02T04:06:57.004Z,98141.52
2023-04-02T04:07:36.838Z,98143.19
2023-04-02T04:08:15.956Z,98143.59
2023-04-02T04:08:54.974Z,98145.08
2023-04-02T04:09:37.375Z,98145.11
2023-04-02T04:10:17.474Z,98145.28
2023-04-02T04:10:51.940Z,98147.53
2023-04-02T04:11:27.867Z,98147.52
2023-04-02T04:12:21.740Z,98149.05
2023-04-02T04:12:57.285Z,98151.38
2023-04-02T04:13:35.563Z,98150.09
2023-04-02T04:14:28.299Z,98154.11
2023-04-02T04:15:09.841Z,98149.69
2023-04-02T04:15:46.417Z,98154.40
2023-04-02T04:16:22.809Z,98154.41
2023-04-02T04:17:30.127Z,98154.86
2023-04-02T04:18:10.729Z,98155.73
2023-04-02T04:18:50.657Z,98158.87
2023-04-02T04:19:30.372Z,98154.45
2023-04-02T04:20:11.438Z,98160.31
2023-04-02T04:20:50.395Z,98159.38
2023-04-02T04:21:37.676Z,98162.27
2023-04-02T04:22:15.374Z,98164.27
2023-04-02T04:22:50.212Z,98163.88
2023-04-02T04:23:30.458Z,98167.60
2023-04-02T04:24:06.059Z,98169.44
2023-04-02T04:24:39.520Z,98168.14
2023-04-02T04:25:21.528Z,98171.91
2023-04-02T04:25:59.199Z,98173.25
2023-04-02T04:26:43.020Z,98171.23
2023-04-02T04:27:24.419Z,98172.67
2023-04-02T04:28:06.065Z,98175.87
2023-04-02T04:28:44.680Z,98175.70
2023-04-02T04:30:06.221Z,98175.71
2023-04-02T04:31:02.206Z,98178.28
2023-04-02T04:31:55.660Z,98178.41
2023-04-02T04:32:39.369Z,98180.50
2023-04-02T04:33:22.742Z,98180.11
2023-04-02T04:34:03.354Z,98180.43
2023-04-02T04:34:53.780Z,98183.13
2023-04-02T04:35:30.191Z,98187.39
2023-04-02T04:36:04.006Z,98184.45
2023-04-02T04:36:54.338Z,98184.42
2023-04-02T04:37:34.014Z,98187.98
2023-04-02T04:38:27.949Z,98188.23
2023-04-02T04:39:07.732Z,98186.05
2023-04-02T04:39:47.125Z,98190.16
2023-04-02T04:40:25.317Z,98190.61
2023-04-02T04:41:04.424Z,98194.25
2023-04-02T04:41:39.151Z,98193.36
2023-04-02T04:42:18.782Z,98192.86
2023-04-02T04:42:55.243Z,98193.23
2023-04-02T04:43:31.467Z,98196.48
2023-04-02T04:44:15.714Z,98194.27
2023-04-02T04:45:06.802Z,98192.08
2023-04-02T04:45:40.002Z,98194.52
2023-04-02T04:46:31.346Z,98195.48
2023-04-02T04:47:18.811Z,98195.61
2023-04-02T04:47:55.496Z,98197.23
2023-04-02T04:48:35.997Z,98196.96
2023-04-02T04:49:19.217Z,98199.08
2023-04-02T04:49:56.289Z,98196.39
2023-04-02T04:50:30.087Z,98197.61
2023-04-02T04:51:17.220Z,98199.71
2023-04-02T04:51:56.729Z,98199.92
2023-04-02T04:52:33.812Z,98201.38
2023-04-02T04:53:16.594Z,98200.65
2023-04-02T04:53:51.331Z,98198.89
2023-04-02T04:54:28.686Z,98202.86
2023-04-02T04:55:01.855Z,98201.98
2023-04-02T04:55:37.900Z,98200.25
2023-04-02T04:56:19.088Z,98200.70
2023-04-02T04:56:58.228Z,98200.17
2023-04-02T04:57:36.488Z,98204.33
2023-04-02T04:58:45.402Z,98201.19
2023-04-02T04:59:25.012Z,98203.92
2023-04-02T05:00:07.644Z,98203.85
2023-04-02T05:00:44.286Z,98205.77
2023-04-02T05:01:21.994Z,98207.35
2023-04-02T05:02:18.431Z,98207.88
2023-04-02T05:02:59.680Z,98210.39
2023-04-02T05:03:53.432Z,98208.52
2023-04-02T05:04:32.011Z,98206.52
2023-04-02T05:05:18.334Z,98208.04
2023-04-02T05:05:51.918Z,98211.97
2023-04-02T05:06:49.962Z,98213.58
2023-04-02T05:07:23.264Z,98211.61
2023-04-02T05:07:59.801Z,98211.86
2023-04-02T05:08:35.888Z,98213.95
2023-04-02T05:09:20.510Z,98214.83
2023-04-02T05:09:53.667Z,98214.42
2023-04-02T05:10:45.592Z,98214.54
2023-04-02T05:11:29.019Z,98215.83
2023-04-02T05:12:41.027Z,98211.56
2023-04-02T05:13:20.331Z,98210.73
2023-04-02T05:14:03.951Z,98214.10
2023-04-02T05:14:41.228Z,98212.73
2023-04-02T05:15:21.766Z,98216.55
2023-04-02T05:16:01.412Z,98220.23
2023-04-02T05:16:50.255Z,98217.70
2023-04-02T05:17:29.555Z,98217.72
2023-04-02T05:18:09.249Z,98221.56
2023-04-02T05:18:50.676Z,98221.95
2023-04-02T05:19:37.582Z,98219.54
2023-04-02T05:20:21.710Z,98218.95
2023-04-02T05:21:27.540Z,98224.70
2023-04-02T05:22:19.681Z,98223.23
2023-04-02T05:23:04.126Z,98223.80
2023-04-02T05:23:43.686Z,98224.75
2023-04-02T05:24:36.895Z,98231.22
2023-04-02T05:25:39.700Z,98227.20
2023-04-02T05:26:33.397Z,98230.77
2023-04-02T05:27:26.879Z,98231.01
2023-04-02T05:28:19.301Z,98235.55
2023-04-02T05:29:11.551Z,98236.48
2023-04-02T05:29:47.675Z,98236.36
2023-04-02T05:30:21.069Z,98242.09
2023-04-02T05:30:57.232Z,98240.02
2023-04-02T05:31:36.355Z,98243.02
2023-04-02T05:32:16.382Z,98245.09
2023-04-02T05:32:57.668Z,98247.55
2023-04-02T05:33:33.289Z,98246.01
2023-04-02T05:34:06.790Z,98247.95
2023-04-02T05:34:42.407Z,98249.75
2023-04-02T05:35:17.772Z,98250.72
2023-04-02T05:35:58.189Z,98248.20
2023-04-02T05:36:32.674Z,98251.10
2023-04-02T05:37:07.254Z,98250.14
2023-04-02T05:37:41.012Z,98250.46
2023-04-02T05:38:22.038Z,98256.34
2023-04-02T05:38:56.816Z,98251.91
2023-04-02T05:39:30.141Z,98252.59
2023-04-02T05:40:12.286Z,98255.52
2023-04-02T05:40:48.087Z,98255.20
2023-04-02T05:41:27.384Z,98257.02
2023-04-02T05:42:16.064Z,98255.62
2023-04-02T05:42:51.476Z,98255.62
2023-04-02T05:43:26.684Z,98254.89
2023-04-02T05:44:18.835Z,98257.44
2023-04-02T05:44:55.292Z,98254.78
2023-04-02T05:45:31.722Z,98255.20
2023-04-02T05:46:13.671Z,98257.66
2023-04-02T05:46:50.823Z,98259.95
2023-04-02T05:47:27.799Z,98259.39
2023-04-02T05:48:03.731Z,98259.11
2023-04-02T05:48:39.624Z,98258.91
2023-04-02T05:49:19.174Z,98256.45
2023-04-02T05:49:55.533Z,98260.27
2023-04-02T05:50:33.456Z,98259.27
2023-04-02T05:51:10.057Z,98260.27
2023-04-02T05:51:45.282Z,98265.42
2023-04-02T05:52:24.394Z,98266.21
2023-04-02T05:53:21.164Z,98262.67
2023-04-02T05:53:57.080Z,98262.40
2023-04-02T05:54:37.413Z,98262.80
2023-04-02T05:55:13.458Z,98261.08
2023-04-02T05:56:06.937Z,98261.92
2023-04-02T05:56:46.856Z,98259.83
2023-04-02T05:57:27.100Z,98259.39
2023-04-02T05:58:34.426Z,98260.05
2023-04-02T05:59:23.515Z,98262.40
2023-04-02T05:59:58.664Z,98261.03
2023-04-02T06:00:38.997Z,98261.84
2023-04-02T06:01:12.489Z,98262.57
2023-04-02T06:01:47.574Z,98261.84
2023-04-02T06:02:32.463Z,98263.28
2023-04-02T06:03:18.259Z,98264.16
2023-04-02T06:04:08.694Z,98260.82
2023-04-02T06:05:01.496Z,98263.39
2023-04-02T06:05:37.271Z,98266.62
2023-04-02T06:06:27.329Z,98267.02
2023-04-02T06:07:18.670Z,98269.46
2023-04-02T06:07:57.281Z,98270.84
2023-04-02T06:08:35.354Z,98263.67
2023-04-02T06:09:21.463Z,98273.10
2023-04-02T06:09:58.217Z,98270.88
2023-04-02T06:10:33.997Z,98268.65
2023-04-02T06:11:10.709Z,98269.63
2023-04-02T06:11:46.637Z,98268.84
2023-04-02T06:12:31.420Z,98269.98
2023-04-02T06:13:07.660Z,98268.88
2023-04-02T06:13:41.049Z,98269.50
2023-04-02T06:14:15.905Z,98269.79
2023-04-02T06:14:49.263Z,98269.64
2023-04-02T06:15:23.861Z,98271.80
2023-04-02T06:15:57.133Z,98272.11
2023-04-02T06:16:31.341Z,98272.35
2023-04-02T06:17:04.704Z,98268.38
2023-04-02T06:17:48.733Z,98271.71
2023-04-02T06:18:33.800Z,98269.34
2023-04-02T06:19:10.985Z,98268.79
2023-04-02T06:19:44.552Z,98271.88
2023-04-02T06:20:19.103Z,98268.73
2023-04-02T06:20:52.874Z,98269.05
2023-04-02T06:21:26.356Z,98270.16
2023-04-02T06:22:07.831Z,98266.14
2023-04-02T06:22:43.581Z,98270.86
2023-04-02T06:23:20.122Z,98273.21
2023-04-02T06:23:59.374Z,98271.92
2023-04-02T06:24:33.612Z,98271.98
2023-04-02T06:25:14.402Z,98272.09
2023-04-02T06:25:47.699Z,98268.77
2023-04-02T06:26:34.000Z,98270.33
2023-04-02T06:27:10.528Z,98270.28
2023-04-02T06:27:46.658Z,98269.90
2023-04-02T06:28:24.702Z,98269.95
2023-04-02T06:29:02.710Z,98273.60
2023-04-02T06:29:40.848Z,98275.90
2023-04-02T06:30:17.812Z,98272.89
2023-04-02T06:30:52.939Z,98274.71
2023-04-02T06:31:35.764Z,98277.10
2023-04-02T06:32:10.258Z,98277.54
2023-04-02T06:32:43.582Z,98275.91
2023-04-02T06:33:17.661Z,98272.97
2023-04-02T06:33:52.758Z,98277.39
2023-04-02T06:34:28.117Z,98279.04
2023-04-02T06:35:01.462Z,98277.14
2023-04-02T06:35:37.521Z,98278.84
2023-04-02T06:36:12.809Z,98277.79
2023-04-02T06:36:46.834Z,98278.48
2023-04-02T06:37:23.814Z,98281.46
2023-04-02T06:37:59.955Z,98276.92
2023-04-02T06:38:34.440Z,98282.04
2023-04-02T06:39:15.940Z,98282.45
2023-04-02T06:39:49.314Z,98283.95
2023-04-02T06:40:31.709Z,98280.52
2023-04-02T06:41:19.735Z,98282.89
2023-04-02T06:41:58.581Z,98284.30
2023-04-02T06:42:35.105Z,98284.08
2023-04-02T06:43:14.253Z,98283.92
2023-04-02T06:43:51.291Z,98285.30
2023-04-02T06:44:28.367Z,98284.23
2023-04-02T06:45:01.957Z,98285.65
2023-04-02T06:45:40.156Z,98283.83
2023-04-02T06:46:26.821Z,98285.33
2023-04-02T06:47:03.099Z,98288.73
2023-04-02T06:47:39.619Z,98288.28
2023-04-02T06:48:18.160Z,98289.02
2023-04-02T06:48:54.809Z,98288.55
2023-04-02T06:49:40.387Z,98286.02
2023-04-02T06:50:17.135Z,98287.28
2023-04-02T06:50:55.027Z,98288.15
2023-04-02T06:51:29.748Z,98289.79
2023-04-02T06:52:05.703Z,98286.27
2023-04-02T06:52:50.833Z,98287.11
2023-04-02T06:53:27.087Z,98291.42
2023-04-02T06:54:00.376Z,98286.96
2023-04-02T06:54:34.167Z,98288.74
2023-04-02T06:55:21.116Z,98288.12
2023-04-02T06:55:59.160Z,98291.58
2023-04-02T06:56:42.588Z,98291.04
2023-04-02T06:57:16.021Z,98292.75
2023-04-02T06:57:49.255Z,98292.60
2023-04-02T06:58:22.744Z,98294.06
2023-04-02T06:58:56.318Z,98295.35
2023-04-02T06:59:29.608Z,98294.75
2023-04-02T07:00:02.911Z,98296.38
2023-04-02T07:00:36.461Z,98299.96
2023-04-02T07:01:15.870Z,98299.71
2023-04-02T07:01:52.346Z,98297.85
2023-04-02T07:02:35.888Z,98299.14
2023-04-02T07:03:17.259Z,98295.40
2023-04-02T07:03:50.716Z,98301.03
2023-04-02T07:04:24.548Z,98297.36
2023-04-02T07:05:00.916Z,98298.20
2023-04-02T07:05:34.718Z,98300.31
2023-04-02T07:06:14.488Z,98298.92
2023-04-02T07:06:47.780Z,98298.77
2023-04-02T07:07:21.154Z,98299.18
2023-04-02T07:07:54.953Z,98300.17
2023-04-02T07:08:28.223Z,98300.05
2023-04-02T07:09:01.708Z,98301.72
2023-04-02T07:09:34.993Z,98306.15
2023-04-02T07:10:09.553Z,98304.33
2023-04-02T07:10:42.783Z,98304.18
2023-04-02T07:11:19.433Z,98304.86
2023-04-02T07:11:54.161Z,98306.84
2023-04-02T07:12:27.453Z,98305.00
2023-04-02T07:13:02.858Z,98309.83
2023-04-02T07:13:36.349Z,98309.77
2023-04-02T07:14:12.415Z,98310.93
2023-04-02T07:14:48.279Z,98311.52
2023-04-02T07:15:24.070Z,98309.25
2023-04-02T07:15:57.566Z,98313.48
2023-04-02T07:16:32.953Z,98316.13
2023-04-02T07:17:06.280Z,98314.09
2023-04-02T07:17:39.694Z,98312.20
2023-04-02T07:18:32.419Z,98317.22
2023-04-02T07:19:05.792Z,98315.16
2023-04-02T07:19:39.150Z,98318.10
2023-04-02T07:20:33.569Z,98316.30
2023-04-02T07:21:06.923Z,98317.98
2023-04-02T07:21:40.212Z,98319.73
2023-04-02T07:22:13.577Z,98320.54
2023-04-02T07:22:47.065Z,98323.59
2023-04-02T07:23:21.475Z,98321.21
2023-04-02T07:23:55.079Z,98323.30
2023-04-02T07:24:28.332Z,98325.27
2023-04-02T07:25:01.611Z,98328.78
2023-04-02T07:25:35.433Z,98324.33
2023-04-02T07:26:09.731Z,98328.66
2023-04-02T07:26:43.314Z,98327.66
2023-04-02T07:27:17.032Z,98328.22
2023-04-02T07:27:51.617Z,98328.90
2023-04-02T07:28:24.902Z,98331.13
2023-04-02T07:28:58.328Z,98327.09
2023-04-02T07:29:31.951Z,98328.17
2023-04-02T07:30:05.836Z,98327.70
2023-04-02T07:30:39.233Z,98333.16
2023-04-02T07:31:20.570Z,98334.21
2023-04-02T07:31:54.260Z,98332.22
2023-04-02T07:32:27.675Z,98334.16
2023-04-02T07:33:02.197Z,98333.50
2023-04-02T07:33:35.790Z,98329.22
2023-04-02T07:34:10.053Z,98334.10
2023-04-02T07:34:43.681Z,98334.83
2023-04-02T07:35:17.271Z,98337.88
2023-04-02T07:35:51.830Z,98337.98
2023-04-02T07:36:25.829Z,98334.30
2023-04-02T07:36:59.367Z,98336.50
2023-04-02T07:37:33.142Z,98337.05
2023-04-02T07:38:06.730Z,98337.42
2023-04-02T07:38:40.111Z,98339.01